Portada
METAR-TAF:

METAR-TAF

Aeroports :

San Antonio del Táchira, Veneçuela

latitud: 07-51N, longitud: 072-27W, altitud: 377 m

METAR: manca

Hora: 15:01 (19:01 UTC)

Pronòstic

L'informe es va fer fa 9 hores i 1 minuts, a les 10:00 UTC
Pronòstic vàlid del 18 a les 12 UTC al 19 a les 12 UTC
Vent 6 kt del Est/Sud-Est
Visibilitat 10 km o més
Núvols disperses a una alçada de 1600 ft
Evolucionant progressivament
l' 18 a les 12 UTC al 18 a les 16 UTC
Vent 4 kt del Sud/Sud-Oest
Visibilitat 10 km o més
Núvols disperses a una alçada de 1600 ft

TAF: SVSA 181000Z 1812/1912 11006KT 9999 SCT016 TX31/19Z TN23/08Z BECMG 1812/1816 20004KT 9999 SCT016

Observacions i pronòstics meteorològics de més de 4000 aeroports (METAR i TAF).

Les estacions disponibles són els punts grocs i vermells al mapa.

Posi el ratolí al punt desitjat per veure el nom de l'estació.

Feu clic per veure les observacions i els pronòstics meteorològics.

Per canviar el mapa: feu clic els botons verds amb una creu de color negre per apropar; al botó verd amb un guió per allunyar la imatge; o en les fletxes verdes per a mapes adjacents.


METAR-TAF: